Albuquerque, NM

1:37 AM MST on December 18, 2014 (GMT -0700)
APRSWXNET Albuquerque NM US | Change Station
CLOSE
Current Station
Personal Weather Station
Location: Albuquerque, NM
Elevation: 5249 ft
Nearby Weather Stations

Elev 5249 ft 35.12 °N, 106.58 °W | Updated 22 days ago

Snow
Snow
32 °F
Feels Like 32 °F
N
3
Wind Variable Wind from West
Gusts 5 mph

Today
High -- | Low -- °F
--% Chance of Precip.
Yesterday
High -- | Low -- °F
Precip. -- in
7:09 AM 4:56 PM
Waning Crescent, 16% visible
Pressure 30.10 in
Visibility 10.0 miles
Clouds Few 3500 ft
Scattered Clouds 12000 ft
Dew Point 28 °F
Humidity 88%
Rainfall 0.00 in
Snow Depth Not available.
UV 0 out of 12
Pollen 3.30 out of 12
Air Quality Not available.
Flu Activity Not available.
METAR KABQ 180752Z 00000KT 10SM FEW035 SCT120 01/M01 A3011 RMK AO2 SLP192 MTNS OBSC NE-SE T00061011

More Conditions Fewer Conditions

Pressure 30.10 in
Visibility 10.0 miles
Clouds Few 3500 ft
Scattered Clouds 12000 ft
Dew Point 28 °F
Humidity 88%
Rainfall 0.00 in
Snow Depth Not available.
UV 0 out of 12
Pollen 3.30 out of 12
Air Quality Not available.
Flu Activity Not available.
METAR KABQ 180752Z 00000KT 10SM FEW035 SCT120 01/M01 A3011 RMK AO2 SLP192 MTNS OBSC NE-SE T00061011

More Conditions Fewer Conditions

Nowcast | as of 11:46 PM MST on December 17, 2014

Snow showers will continue overnight...with visibilities reduced in patchy fog. Snow showers and fog near Los Alamos and the Santa Fe Metro area will move east across the southern portions of the Sangre de Cristo Mountains...and across Interstate 25 near Las Vegas and Wagon Mound. More snow showers continue near Red River and Angel Fire. Expect light snow of less than an inch with reduced visibilities in fog overnight.

×

10-Day Weather Forecast

Almanac

Astronomy

Dec. 18, 2014 Rise Set
Actual Time
Civil Twilight
Nautical Twilight
Astronomical Twilight
Moon
Length of Visible Light
Length of Day
Tomorrow will be .
, % of the Moon is Illuminated

Today's Extremes

State Highs State Lows

Community

WunderPhotos

Upload Photos

1,778,907 photos uploaded!

WunderBlogs® & News

Nearby

Air Quality

  Air Quality AQ Index Pollutant
Not available.

Snow Depth

Station Depth Elevation

Earthquake Activity

City Distance Mag. Time & Date
Minimum magnitude displayed is 2.5.

Coastal Water Temperatures

Place Temperature

Nearby Weather Stations